Data for 10/17/2013

Time Sea-Level Adjusted Pressure Absolute Pressure Temperature Relative Humidity Dew Point   
(mb) (inHg) (mb) (inHg) (C) (F) (%) (C) (F)
00:05 1022 30.18 852 25.16 2.3 36.2 86 0.2 32.3
00:10 1022 30.18 852 25.16 2.3 36.2 87 0.3 32.5
00:15 1022 30.18 852 25.16 2.3 36.2 87 0.3 32.6
00:20 1022 30.18 852 25.16 2.3 36.1 87 0.3 32.5
00:25 1022 30.18 852 25.16 2.3 36.1 87 0.3 32.5
00:30 1022 30.18 852 25.16 2.3 36.1 87 0.3 32.5
00:35 1022 30.18 852 25.16 2.2 36 87 0.2 32.4
00:40 1022 30.18 852 25.16 2.2 36 87 0.3 32.6
00:45 1022 30.18 852 25.16 2.2 35.9 87 0.2 32.4
00:50 1022 30.18 852 25.16 2.2 35.9 86 0.1 32.2
00:55 1022 30.18 852 25.16 2.2 35.9 87 0.2 32.4
01:00 1022 30.18 852 25.16 2.2 35.9 86 0.1 32.2
01:05 1022 30.18 852 25.16 2.1 35.7 86 -0.1 31.9
01:10 1022 30.18 852 25.16 2 35.6 86 -0.1 31.9
01:15 1022 30.18 852 25.16 2 35.7 86 -0 31.9
01:20 1022 30.18 852 25.16 2 35.7 87 0 32
01:25 1022 30.18 852 25.16 2 35.7 87 0 32.1
01:30 1022 30.18 852 25.16 2 35.7 87 0.1 32.1
01:35 1022 30.18 852 25.16 2 35.6 88 0.2 32.3
01:40 1022 30.18 852 25.16 2 35.6 88 0.1 32.2
01:45 1022 30.18 851 25.13 2 35.5 88 0.1 32.3
01:50 1022 30.18 851 25.13 1.9 35.4 88 0.1 32.1
01:55 1022 30.18 851 25.13 1.9 35.4 87 -0.1 31.8
02:00 1022 30.18 851 25.13 2 35.5 86 -0.2 31.6
02:05 1022 30.18 851 25.13 2 35.5 85 -0.3 31.5
02:10 1022 30.18 851 25.13 1.9 35.5 84 -0.4 31.2
02:15 1022 30.18 851 25.13 1.9 35.4 84 -0.5 31.2
02:20 1022 30.18 851 25.13 1.8 35.3 85 -0.4 31.3
02:25 1022 30.18 851 25.13 1.8 35.3 85 -0.4 31.2
02:30 1022 30.18 851 25.13 1.8 35.3 85 -0.4 31.3
02:35 1022 30.18 851 25.13 1.8 35.2 86 -0.4 31.3
02:40 1022 30.18 851 25.13 1.7 35.1 87 -0.3 31.5
02:45 1022 30.18 851 25.13 1.7 35.1 86 -0.4 31.2
02:50 1022 30.18 851 25.13 1.7 35.1 85 -0.5 31.1
02:55 1022 30.18 851 25.13 1.7 35.1 85 -0.5 31.2
03:00 1022 30.18 851 25.13 1.7 35.1 85 -0.5 31.1
03:05 1022 30.18 851 25.13 1.7 35.1 85 -0.5 31.1
03:10 1022 30.18 851 25.13 1.7 35.1 85 -0.5 31.1
03:15 1022 30.18 851 25.13 1.6 35 86 -0.5 31.1
03:20 1022 30.18 851 25.13 1.6 34.9 85 -0.6 31
03:25 1022 30.18 851 25.13 1.6 34.9 85 -0.6 30.9
03:30 1022 30.18 851 25.13 1.6 34.9 85 -0.6 30.9
03:35 1022 30.18 851 25.13 1.6 34.8 85 -0.7 30.8
03:40 1022 30.18 851 25.13 1.5 34.8 85 -0.8 30.6
03:45 1022 30.18 851 25.13 1.5 34.7 85 -0.7 30.7
03:50 1022 30.18 851 25.13 1.5 34.7 85 -0.8 30.6
03:55 1022 30.18 851 25.13 1.4 34.6 85 -0.7 30.7
04:00 1022 30.18 851 25.13 1.4 34.6 85 -0.8 30.6
04:05 1021 30.15 851 25.13 1.4 34.5 86 -0.8 30.6
04:10 1021 30.15 851 25.13 1.4 34.6 86 -0.7 30.7
04:15 1021 30.15 851 25.13 1.4 34.5 86 -0.7 30.8
04:20 1021 30.15 851 25.13 1.3 34.4 86 -0.7 30.7
04:25 1021 30.15 851 25.13 1.3 34.3 86 -0.8 30.6
04:30 1022 30.18 851 25.13 1.2 34.2 86 -0.8 30.6
04:35 1022 30.18 851 25.13 1.3 34.3 87 -0.7 30.7
04:40 1022 30.18 851 25.13 1.3 34.3 87 -0.7 30.7
04:45 1022 30.18 851 25.13 1.3 34.3 87 -0.7 30.7
04:50 1022 30.18 851 25.13 1.2 34.2 87 -0.7 30.7
04:55 1022 30.18 851 25.13 1.2 34.1 87 -0.8 30.6
05:00 1022 30.18 851 25.13 1.1 34 87 -0.8 30.6
05:05 1022 30.18 851 25.13 1.1 34.1 87 -0.8 30.5
05:10 1022 30.18 851 25.13 1.1 34.1 87 -0.8 30.6
05:15 1022 30.18 851 25.13 1.1 34 87 -0.9 30.5
05:20 1022 30.18 851 25.13 1.1 33.9 87 -0.8 30.6
05:25 1022 30.18 851 25.13 1 33.9 88 -0.8 30.5
05:30 1022 30.18 851 25.13 1.1 33.9 87 -0.8 30.5
05:35 1022 30.18 851 25.13 1.1 33.9 87 -0.8 30.5
05:40 1022 30.18 851 25.13 1.1 34 87 -0.9 30.4
05:45 1022 30.18 851 25.13 1.1 34 87 -0.8 30.5
05:50 1022 30.18 851 25.13 1 33.8 88 -0.8 30.6
05:55 1022 30.18 851 25.13 1.1 34 87 -0.8 30.5
06:00 1022 30.18 851 25.13 1.1 34 88 -0.7 30.7
06:05 1022 30.18 851 25.13 1 33.9 89 -0.6 30.9
06:10 1022 30.18 851 25.13 0.9 33.6 90 -0.6 30.9
06:15 1022 30.18 851 25.13 0.7 33.3 91 -0.6 30.8
06:20 1022 30.18 851 25.13 0.7 33.3 91 -0.6 30.9
06:25 1022 30.18 851 25.13 0.7 33.3 91 -0.6 30.9
06:30 1022 30.18 851 25.13 0.8 33.4 91 -0.5 31
06:35 1022 30.18 851 25.13 0.9 33.6 91 -0.5 31.1
06:40 1022 30.18 851 25.13 0.9 33.6 90 -0.6 31
06:45 1022 30.18 851 25.13 0.8 33.4 91 -0.6 31
06:50 1022 30.18 851 25.13 0.7 33.3 92 -0.5 31.1
06:55 1022 30.18 851 25.13 0.7 33.2 92 -0.5 31.1
07:00 1022 30.18 851 25.13 0.7 33.2 92 -0.5 31.1
07:05 1022 30.18 851 25.13 0.7 33.3 92 -0.5 31.1
07:10 1022 30.18 851 25.13 0.8 33.5 90 -0.6 31
07:15 1022 30.18 851 25.13 0.9 33.6 89 -0.7 30.8
07:20 1022 30.18 851 25.13 1 33.8 89 -0.7 30.8
07:25 1022 30.18 851 25.13 1 33.7 88 -0.8 30.6
07:30 1022 30.18 851 25.13 1.1 33.9 87 -0.8 30.6
07:35 1022 30.18 851 25.13 1.2 34.1 88 -0.5 31
07:40 1022 30.18 851 25.13 1.2 34.1 89 -0.5 31.1
07:45 1022 30.18 851 25.13 1.3 34.3 88 -0.6 30.9
07:50 1022 30.18 851 25.13 1.3 34.3 88 -0.5 31.2
07:55 1022 30.18 851 25.13 1.3 34.3 89 -0.4 31.3
08:00 1022 30.18 851 25.13 1.3 34.3 88 -0.5 31.1
08:05 1022 30.18 851 25.13 1.3 34.3 88 -0.5 31.1
08:10 1022 30.18 851 25.13 1.3 34.3 87 -0.6 30.9
08:15 1022 30.18 851 25.13 1.4 34.4 87 -0.6 31
08:20 1022 30.18 851 25.13 1.4 34.6 88 -0.4 31.3
08:25 1022 30.18 851 25.13 1.5 34.7 87 -0.4 31.3
08:30 1022 30.18 851 25.13 1.5 34.8 87 -0.4 31.4
08:35 1022 30.18 851 25.13 1.6 34.9 87 -0.3 31.4
08:40 1022 30.18 851 25.13 1.6 34.8 89 -0.1 31.8
08:45 1022 30.18 851 25.13 1.5 34.7 88 -0.4 31.3
08:50 1022 30.18 851 25.13 1.4 34.5 88 -0.3 31.4
08:55 1022 30.18 851 25.13 1.4 34.6 89 -0.2 31.7
09:00 1022 30.18 851 25.13 1.6 34.9 88 -0.1 31.9
09:05 1022 30.18 851 25.13 1.7 35.1 85 -0.5 31.1
09:10 1022 30.18 851 25.13 1.6 35 86 -0.4 31.2
09:15 1022 30.18 851 25.13 1.7 35.1 84 -0.6 30.8
09:20 1022 30.18 851 25.13 1.7 35.1 85 -0.6 31
09:25 1022 30.18 851 25.13 1.8 35.2 87 -0.2 31.6
09:30 1022 30.18 851 25.13 1.9 35.3 86 -0.3 31.5
09:35 1022 30.18 851 25.13 1.9 35.5 84 -0.4 31.3
09:40 1022 30.18 851 25.13 1.8 35.3 85 -0.4 31.3
09:45 1022 30.18 851 25.13 2 35.6 85 -0.3 31.4
09:50 1022 30.18 851 25.13 2 35.7 86 -0.1 31.7
09:55 1022 30.18 851 25.13 2.2 36 83 -0.3 31.5
10:00 1022 30.18 852 25.16 2.4 36.4 81 -0.5 31.1
10:05 1022 30.18 851 25.13 2.5 36.5 82 -0.3 31.5
10:10 1022 30.18 852 25.16 2.3 36.2 85 0 32
10:15 1022 30.18 852 25.16 2.6 36.6 82 -0.2 31.7
10:20 1022 30.18 852 25.16 2.9 37.2 81 -0.1 31.9
10:25 1022 30.18 852 25.16 3 37.4 79 -0.3 31.5
10:30 1022 30.18 852 25.16 2.8 37.1 81 -0.1 31.8
10:35 1022 30.18 852 25.16 2.4 36.3 81 -0.5 31.1
10:40 1022 30.18 852 25.16 2.8 37 80 -0.4 31.3
10:45 1022 30.18 852 25.16 3.1 37.7 78 -0.3 31.4
10:50 1022 30.18 852 25.16 3.1 37.5 78 -0.3 31.4
10:55 1022 30.18 852 25.16 3.2 37.8 75 -0.7 30.7
11:00 1022 30.18 852 25.16 3.2 37.7 77 -0.5 31.1
11:05 1022 30.18 852 25.16 3.2 37.7 78 -0.3 31.4
11:10 1022 30.18 852 25.16 3.7 38.6 77 -0 31.9
11:15 1022 30.18 852 25.16 4 39.3 72 -0.6 30.9
11:20 1022 30.18 852 25.16 4 39.2 74 -0.3 31.5
11:25 1022 30.18 852 25.16 4.5 40.1 71 -0.4 31.4
11:30 1022 30.18 851 25.13 4 39.3 74 -0.1 31.8
11:35 1022 30.18 851 25.13 3.6 38.4 78 0.1 32.1
11:40 1022 30.18 852 25.16 4.4 39.9 72 -0.2 31.6
11:45 1022 30.18 852 25.16 4.6 40.4 72 0.1 32.1
11:50 1022 30.18 851 25.13 5.2 41.3 70 0.2 32.4
11:55 1022 30.18 851 25.13 5 40.9 72 0.3 32.5
12:00 1022 30.18 851 25.13 5 41 70 0 32
12:05 1022 30.18 851 25.13 5 40.9 68 -0.4 31.3
12:10 1022 30.18 851 25.13 5 41 68 -0.4 31.3
12:15 1022 30.18 851 25.13 5 41 67 -0.6 30.9
12:20 1022 30.18 851 25.13 5.1 41.2 67 -0.4 31.2
12:25 1022 30.18 851 25.13 5.1 41.2 67 -0.4 31.3
12:30 1022 30.18 851 25.13 5.1 41.1 68 -0.3 31.5
12:35 1022 30.18 851 25.13 5.3 41.6 67 -0.3 31.5
12:40 1022 30.18 851 25.13 5.5 41.8 66 -0.3 31.5
12:45 1022 30.18 851 25.13 5.6 42.2 65 -0.5 31.1
12:50 1022 30.18 851 25.13 5.5 42 65 -0.5 31
12:55 1022 30.18 851 25.13 5.7 42.3 63 -0.7 30.7
13:00 1022 30.18 851 25.13 6 42.9 63 -0.4 31.3
13:05 1022 30.18 851 25.13 6 42.8 63 -0.5 31.1
13:10 1022 30.18 851 25.13 5.8 42.4 65 -0.3 31.4
13:15 1022 30.18 851 25.13 5.5 41.9 65 -0.5 31
13:20 1022 30.18 851 25.13 5.5 42 65 -0.5 31.1
13:25 1022 30.18 851 25.13 5.8 42.4 64 -0.5 31.1
13:30 1022 30.18 851 25.13 6.1 43 62 -0.7 30.8
13:35 1022 30.18 851 25.13 6.1 43 63 -0.5 31.1
13:40 1022 30.18 851 25.13 6.1 42.9 60 -1.1 30.1
13:45 1022 30.18 851 25.13 6 42.8 58 -1.7 29
13:50 1022 30.18 851 25.13 5.9 42.6 59 -1.5 29.4
13:55 1022 30.18 851 25.13 5.9 42.5 66 0 32.1
14:00 1022 30.18 851 25.13 4.9 40.8 69 -0.3 31.4
14:05 1022 30.18 851 25.13 4.8 40.6 71 -0.1 31.9
14:10 1022 30.18 851 25.13 4.5 40.1 72 -0.2 31.7
14:15 1022 30.18 851 25.13 4.5 40.1 70 -0.5 31
14:20 1022 30.18 851 25.13 3.3 37.9 85 1 33.7
14:25 1022 30.18 851 25.13 1.6 34.8 90 0.1 32.3
14:30 1022 30.18 851 25.13 1.1 34 93 0.1 32.3
14:35 1022 30.18 851 25.13 2 35.6 90 0.5 32.9
14:40 1022 30.18 851 25.13 2.8 37 86 0.7 33.3
14:45 1022 30.18 851 25.13 4.1 39.4 78 0.6 33.1
14:50 1022 30.18 851 25.13 5 41 74 0.7 33.3
14:55 1022 30.18 851 25.13 5.5 41.9 72 0.8 33.4
15:00 1022 30.18 851 25.13 5.9 42.7 69 0.6 33.1
15:05 1022 30.18 851 25.13 5.5 42 71 0.7 33.2
15:10 1022 30.18 851 25.13 4.9 40.9 72 0.2 32.4
15:15 1022 30.18 851 25.13 4.6 40.3 72 -0.1 31.9
15:20 1022 30.18 851 25.13 4.9 40.8 66 -1 30.3
15:25 1022 30.18 851 25.13 5.4 41.6 65 -0.7 30.7
15:30 1022 30.18 851 25.13 5.5 42 62 -1.2 29.9
15:35 1022 30.18 851 25.13 5.5 42 64 -0.6 30.9
15:40 1022 30.18 851 25.13 5 41 64 -1.2 29.8
15:45 1022 30.18 851 25.13 4.7 40.4 63 -1.8 28.8
15:50 1022 30.18 851 25.13 4.5 40.1 64 -1.7 28.9
15:55 1022 30.18 851 25.13 4.4 40 64 -1.8 28.7
16:00 1022 30.18 851 25.13 4.4 39.9 62 -2.2 28.1
16:05 1022 30.18 851 25.13 4.4 39.8 72 -0.3 31.4
16:10 1022 30.18 851 25.13 3.7 38.7 80 0.5 32.9
16:15 1022 30.18 851 25.13 3.4 38.2 79 0.2 32.4
16:20 1022 30.18 851 25.13 3.2 37.8 81 0.2 32.3
16:25 1022 30.18 851 25.13 3.2 37.7 79 -0.1 31.9
16:30 1022 30.18 851 25.13 3.2 37.8 79 -0.1 31.9
16:35 1022 30.18 851 25.13 3.2 37.7 79 -0 31.9
16:40 1022 30.18 851 25.13 3.2 37.8 78 -0.3 31.4
16:45 1022 30.18 851 25.13 3.3 38 76 -0.5 31.1
16:50 1022 30.18 851 25.13 3.5 38.3 76 -0.3 31.4
16:55 1022 30.18 851 25.13 3.6 38.5 74 -0.5 31.1
17:00 1022 30.18 851 25.13 3.8 38.9 74 -0.5 31.1
17:05 1022 30.18 852 25.16 3.9 39 72 -0.6 30.9
17:10 1022 30.18 852 25.16 4.1 39.3 72 -0.6 30.9
17:15 1022 30.18 852 25.16 4.1 39.3 73 -0.3 31.4
17:20 1022 30.18 852 25.16 4.1 39.3 72 -0.5 31.1
17:25 1023 30.21 852 25.16 4.1 39.4 73 -0.3 31.4
17:30 1023 30.21 852 25.16 4.1 39.4 74 -0.2 31.7
17:35 1023 30.21 852 25.16 4 39.3 73 -0.3 31.4
17:40 1023 30.21 852 25.16 3.8 38.8 73 -0.6 30.8
17:45 1023 30.21 852 25.16 3.5 38.3 73 -1 30.2
17:50 1023 30.21 852 25.16 3.2 37.7 76 -0.6 30.9
17:55 1023 30.21 852 25.16 2.8 37 79 -0.5 31
18:00 1023 30.21 852 25.16 2.6 36.6 80 -0.6 31
18:05 1023 30.21 852 25.16 2.4 36.3 80 -0.7 30.7
18:10 1023 30.21 852 25.16 2.2 35.9 80 -1 30.2
18:15 1023 30.21 852 25.16 2.1 35.9 79 -1.2 29.8
18:20 1023 30.21 852 25.16 2.2 36 79 -1 30.2
18:25 1023 30.21 852 25.16 2.1 35.8 81 -0.8 30.6
18:30 1023 30.21 852 25.16 2.1 35.7 82 -0.7 30.8
18:35 1023 30.21 852 25.16 2 35.6 83 -0.6 30.8
18:40 1023 30.21 853 25.19 1.9 35.4 83 -0.7 30.8
18:45 1023 30.21 853 25.19 1.8 35.3 84 -0.5 31.1
18:50 1023 30.21 853 25.19 1.8 35.3 85 -0.5 31.1
18:55 1024 30.24 853 25.19 1.8 35.3 85 -0.4 31.3
19:00 1024 30.24 853 25.19 1.8 35.2 85 -0.5 31.1
19:05 1024 30.24 853 25.19 1.8 35.3 85 -0.5 31.1
19:10 1024 30.24 853 25.19 1.8 35.3 83 -0.7 30.7
19:15 1024 30.24 853 25.19 1.9 35.4 80 -1.2 29.9
19:20 1024 30.24 853 25.19 2.1 35.8 79 -1.1 29.9
19:25 1024 30.24 853 25.19 2.2 35.9 76 -1.6 29.1
19:30 1024 30.24 853 25.19 2.3 36.2 76 -1.5 29.3
19:35 1024 30.24 853 25.19 2.3 36.2 75 -1.7 28.9
19:40 1024 30.24 853 25.19 2.4 36.3 75 -1.5 29.3
19:45 1024 30.24 853 25.19 2.3 36.2 77 -1.4 29.5
19:50 1024 30.24 853 25.19 2.2 35.9 77 -1.5 29.3
19:55 1024 30.24 853 25.19 2.1 35.9 76 -1.6 29.1
20:00 1024 30.24 853 25.19 2.2 36 75 -1.7 29
20:05 1024 30.24 853 25.19 2.3 36.1 76 -1.6 29.1
20:10 1024 30.24 853 25.19 2.2 35.9 76 -1.7 28.9
20:15 1024 30.24 853 25.19 2 35.5 77 -1.6 29.1
20:20 1024 30.24 853 25.19 1.8 35.3 78 -1.6 29.1
20:25 1024 30.24 853 25.19 1.8 35.3 77 -1.8 28.8
20:30 1024 30.24 853 25.19 1.8 35.3 77 -1.8 28.8
20:35 1024 30.24 853 25.19 1.8 35.3 77 -1.7 28.9
20:40 1024 30.24 853 25.19 1.8 35.3 77 -1.8 28.7
20:45 1024 30.24 853 25.19 1.9 35.4 76 -1.9 28.6
20:50 1024 30.24 853 25.19 2 35.6 76 -1.8 28.8
20:55 1024 30.24 853 25.19 2.1 35.8 76 -1.8 28.8
21:00 1024 30.24 853 25.19 2.2 35.9 75 -1.7 28.9
21:05 1024 30.24 854 25.22 2.1 35.9 75 -1.8 28.8
21:10 1024 30.24 854 25.22 2.2 35.9 75 -1.8 28.8
21:15 1025 30.27 854 25.22 2.3 36.1 76 -1.6 29.2
21:20 1025 30.27 854 25.22 2.3 36.1 77 -1.3 29.6
21:25 1025 30.27 854 25.22 2.2 36 82 -0.6 30.9
21:30 1025 30.27 854 25.22 1.4 34.5 88 -0.5 31.2
21:35 1025 30.27 854 25.22 1.1 33.9 89 -0.5 31
21:40 1025 30.27 854 25.22 0.8 33.5 91 -0.5 31
21:45 1025 30.27 854 25.22 0.5 33 92 -0.6 30.9
21:50 1025 30.27 854 25.22 0.6 33 92 -0.6 31
21:55 1025 30.27 854 25.22 0.7 33.2 92 -0.5 31.1
22:00 1025 30.27 854 25.22 0.7 33.2 91 -0.6 31
22:05 1025 30.27 854 25.22 0.7 33.2 91 -0.6 30.9
22:10 1025 30.27 854 25.22 0.5 32.9 92 -0.7 30.8
22:15 1025 30.27 854 25.22 0.3 32.5 93 -0.7 30.7
22:20 1025 30.27 854 25.22 0.1 32.2 93 -0.9 30.5
22:25 1025 30.27 854 25.22 0.1 32.2 94 -0.8 30.5
22:30 1025 30.27 854 25.22 0.1 32.2 94 -0.8 30.6
22:35 1025 30.27 854 25.22 0.1 32.1 94 -0.8 30.5
22:40 1025 30.27 854 25.22 -0.1 31.9 94 -0.9 30.3
22:45 1025 30.27 854 25.22 -0.2 31.7 94 -1 30.2
22:50 1025 30.27 854 25.22 -0.3 31.5 94 -1.1 30
22:55 1025 30.27 854 25.22 -0.3 31.5 95 -1.1 30.1
23:00 1025 30.27 854 25.22 -0.2 31.6 93 -1.2 29.8
23:05 1025 30.27 854 25.22 -0.4 31.3 94 -1.3 29.7
23:10 1025 30.27 854 25.22 -0.3 31.5 92 -1.5 29.3
23:15 1025 30.27 854 25.22 -0.1 31.9 88 -1.8 28.8
23:20 1025 30.27 854 25.22 0.2 32.3 85 -2 28.3
23:25 1025 30.27 854 25.22 0.2 32.3 82 -2.6 27.3
23:30 1025 30.27 854 25.22 0.2 32.3 81 -2.8 27
23:35 1025 30.27 854 25.22 0.4 32.7 78 -3 26.6
23:40 1025 30.27 854 25.22 0.5 33 78 -2.9 26.7
23:45 1025 30.27 854 25.22 0.7 33.3 76 -3 26.7
23:50 1025 30.27 854 25.22 0.7 33.3 76 -3 26.5
23:55 1025 30.27 854 25.22 0.6 33.1 75 -3.3 26
24:00 1025 30.27 854 25.22 0.8 33.4 73 -3.6 25.6